createdAt,value
2023-03-02T00:00:55.456Z,0.00
2023-03-02T00:01:55.431Z,0.00
2023-03-02T00:02:56.351Z,0.00
2023-03-02T00:03:55.615Z,0.00
2023-03-02T00:04:55.274Z,0.00
2023-03-02T00:05:55.261Z,0.00
2023-03-02T00:06:55.260Z,0.00
2023-03-02T00:07:55.311Z,0.00
2023-03-02T00:08:55.225Z,0.00
2023-03-02T00:09:55.228Z,0.00
2023-03-02T00:10:55.197Z,0.00
2023-03-02T00:11:55.198Z,0.00
2023-03-02T00:12:55.181Z,0.00
2023-03-02T00:13:55.221Z,0.00
2023-03-02T00:14:55.154Z,0.00
2023-03-02T00:15:55.194Z,0.00
2023-03-02T00:16:55.130Z,0.00
2023-03-02T00:17:55.148Z,0.00
2023-03-02T00:18:55.220Z,0.00
2023-03-02T00:19:55.113Z,0.00
2023-03-02T00:20:55.123Z,0.00
2023-03-02T00:21:55.096Z,0.00
2023-03-02T00:22:55.071Z,0.00
2023-03-02T00:23:55.062Z,0.00
2023-03-02T00:24:55.042Z,0.00
2023-03-02T00:25:55.029Z,0.00
2023-03-02T00:26:55.223Z,0.00
2023-03-02T00:27:55.227Z,0.00
2023-03-02T00:28:55.223Z,0.00
2023-03-02T00:29:54.980Z,0.00
2023-03-02T00:30:54.961Z,0.00
2023-03-02T00:31:55.062Z,0.00
2023-03-02T00:32:54.951Z,0.00
2023-03-02T00:33:54.937Z,0.00
2023-03-02T00:34:55.227Z,0.00
2023-03-02T00:35:55.244Z,0.00
2023-03-02T00:36:54.907Z,0.00
2023-03-02T00:37:55.198Z,0.00
2023-03-02T00:38:54.867Z,0.00
2023-03-02T00:39:54.869Z,0.00
2023-03-02T00:40:54.844Z,0.00
2023-03-02T00:41:54.854Z,0.00
2023-03-02T00:42:55.232Z,0.00
2023-03-02T00:43:54.987Z,0.00
2023-03-02T00:44:55.240Z,0.00
2023-03-02T00:45:54.826Z,0.00
2023-03-02T00:46:54.856Z,0.00
2023-03-02T00:47:55.237Z,0.00
2023-03-02T00:48:54.744Z,0.00
2023-03-02T00:49:54.778Z,0.00
2023-03-02T00:50:55.226Z,0.00
2023-03-02T00:51:55.236Z,0.00
2023-03-02T00:52:55.234Z,0.00
2023-03-02T00:53:55.108Z,0.00
2023-03-02T00:54:54.691Z,0.00
2023-03-02T00:55:54.711Z,0.00
2023-03-02T00:56:54.661Z,0.00
2023-03-02T00:57:54.673Z,0.00
2023-03-02T00:58:55.252Z,0.00
2023-03-02T00:59:54.663Z,0.00
2023-03-02T01:00:54.644Z,0.00
2023-03-02T01:01:54.693Z,0.00
2023-03-02T01:02:54.800Z,0.00
2023-03-02T01:03:54.643Z,0.00
2023-03-02T01:04:54.574Z,0.00
2023-03-02T01:05:54.593Z,0.00
2023-03-02T01:06:54.618Z,0.00
2023-03-02T01:07:54.569Z,0.00
2023-03-02T01:08:54.685Z,0.00
2023-03-02T01:09:54.569Z,0.00
2023-03-02T01:10:54.517Z,0.00
2023-03-02T01:11:54.513Z,0.00
2023-03-02T01:12:54.515Z,0.00
2023-03-02T01:13:54.513Z,0.00
2023-03-02T01:14:54.866Z,0.00
2023-03-02T01:15:54.936Z,0.00
2023-03-02T01:16:54.935Z,0.00
2023-03-02T01:17:54.964Z,0.00
2023-03-02T01:18:54.425Z,0.00
2023-03-02T01:19:54.421Z,0.00
2023-03-02T01:20:54.423Z,0.00
2023-03-02T01:21:54.404Z,0.00
2023-03-02T01:22:55.117Z,0.00
2023-03-02T01:23:54.631Z,0.00
2023-03-02T01:24:55.128Z,0.00
2023-03-02T01:25:54.373Z,0.00
2023-03-02T01:26:54.310Z,0.00
2023-03-02T01:27:54.324Z,0.00
2023-03-02T01:28:54.294Z,0.00
2023-03-02T01:29:54.308Z,0.00
2023-03-02T01:30:54.283Z,0.00
2023-03-02T01:31:54.405Z,0.00
2023-03-02T01:32:54.279Z,0.00
2023-03-02T01:33:54.282Z,0.00
2023-03-02T01:34:54.224Z,0.00
2023-03-02T01:35:54.274Z,0.00
2023-03-02T01:36:54.228Z,0.00
2023-03-02T01:37:54.217Z,0.00
2023-03-02T01:38:54.337Z,0.00
2023-03-02T01:39:54.230Z,0.00
2023-03-02T01:40:54.159Z,0.00
2023-03-02T01:41:54.180Z,0.00
2023-03-02T01:42:54.133Z,0.00
2023-03-02T01:43:54.158Z,0.00
2023-03-02T01:44:54.150Z,0.00
2023-03-02T01:45:54.320Z,0.00
2023-03-02T01:46:54.282Z,0.00
2023-03-02T01:47:54.290Z,0.00
2023-03-02T01:48:54.071Z,0.00
2023-03-02T01:49:54.071Z,0.00
2023-03-02T01:50:54.052Z,0.00
2023-03-02T01:51:54.130Z,0.00
2023-03-02T01:52:54.091Z,0.00
2023-03-02T01:53:55.213Z,0.00
2023-03-02T01:54:54.013Z,0.00
2023-03-02T01:55:54.186Z,0.00
2023-03-02T01:56:53.991Z,0.00
2023-03-02T01:57:54.074Z,0.00
2023-03-02T01:58:53.955Z,0.00
2023-03-02T01:59:53.971Z,0.00
2023-03-02T02:00:53.973Z,0.00
2023-03-02T02:01:53.958Z,0.00
2023-03-02T02:02:54.304Z,0.00
2023-03-02T02:03:54.253Z,0.00
2023-03-02T02:04:54.306Z,0.00
2023-03-02T02:05:53.887Z,0.00
2023-03-02T02:06:54.074Z,0.00
2023-03-02T02:07:53.870Z,0.00
2023-03-02T02:08:53.831Z,0.00
2023-03-02T02:09:53.850Z,0.00
2023-03-02T02:10:54.302Z,0.00
2023-03-02T02:11:54.307Z,0.00
2023-03-02T02:12:54.310Z,0.00
2023-03-02T02:13:54.304Z,0.00
2023-03-02T02:14:53.784Z,0.00
2023-03-02T02:15:53.788Z,0.00
2023-03-02T02:16:53.819Z,0.00
2023-03-02T02:17:53.757Z,0.00
2023-03-02T02:18:53.958Z,0.00
2023-03-02T02:19:54.318Z,0.00
2023-03-02T02:20:53.708Z,0.00
2023-03-02T02:21:53.803Z,0.00
2023-03-02T02:22:53.681Z,0.00
2023-03-02T02:23:53.667Z,0.00
2023-03-02T02:24:53.673Z,0.00
2023-03-02T02:25:53.648Z,0.00
2023-03-02T02:26:54.316Z,0.00
2023-03-02T02:27:54.318Z,0.00
2023-03-02T02:28:54.074Z,0.00
2023-03-02T02:29:54.319Z,0.00
2023-03-02T02:30:53.597Z,0.00
2023-03-02T02:31:53.713Z,0.00
2023-03-02T02:32:53.628Z,0.00
2023-03-02T02:33:53.559Z,0.00
2023-03-02T02:34:53.593Z,0.00
2023-03-02T02:35:53.567Z,0.00
2023-03-02T02:36:53.542Z,0.00
2023-03-02T02:37:53.544Z,0.00
2023-03-02T02:38:53.522Z,0.00
2023-03-02T02:39:53.488Z,0.00
2023-03-02T02:40:53.502Z,0.00
2023-03-02T02:41:53.460Z,0.00
2023-03-02T02:42:53.486Z,0.00
2023-03-02T02:43:53.759Z,0.00
2023-03-02T02:44:53.449Z,0.00
2023-03-02T02:45:53.478Z,0.00
2023-03-02T02:46:53.427Z,0.00
2023-03-02T02:47:53.422Z,0.00
2023-03-02T02:48:53.404Z,0.00
2023-03-02T02:49:53.381Z,0.00
2023-03-02T02:50:53.603Z,0.00
2023-03-02T02:51:53.372Z,0.00
2023-03-02T02:52:53.380Z,0.00
2023-03-02T02:53:53.326Z,0.00
2023-03-02T02:54:53.343Z,0.00
2023-03-02T02:55:53.307Z,0.00
2023-03-02T02:56:53.315Z,0.00
2023-03-02T02:57:53.286Z,0.00
2023-03-02T02:58:53.334Z,0.00
2023-03-02T02:59:53.336Z,0.00
2023-03-02T03:00:53.306Z,0.00
2023-03-02T03:01:53.242Z,0.00
2023-03-02T03:02:53.235Z,0.00
2023-03-02T03:03:53.299Z,0.00
2023-03-02T03:04:53.224Z,0.00
2023-03-02T03:05:53.194Z,0.00
2023-03-02T03:06:53.370Z,0.00
2023-03-02T03:07:53.324Z,0.00
2023-03-02T03:08:53.347Z,0.00
2023-03-02T03:09:53.196Z,0.00
2023-03-02T03:10:53.155Z,0.00
2023-03-02T03:11:53.122Z,0.00
2023-03-02T03:12:53.136Z,0.00
2023-03-02T03:13:53.114Z,0.00
2023-03-02T03:14:53.197Z,0.00
2023-03-02T03:15:53.083Z,0.00
2023-03-02T03:16:53.158Z,0.00
2023-03-02T03:17:53.344Z,0.00
2023-03-02T03:18:53.088Z,0.00
2023-03-02T03:19:53.041Z,0.00
2023-03-02T03:20:53.747Z,0.00
2023-03-02T03:21:53.016Z,0.00
2023-03-02T03:22:53.358Z,0.00
2023-03-02T03:23:53.014Z,0.00
2023-03-02T03:24:52.989Z,0.00
2023-03-02T03:25:52.959Z,0.00
2023-03-02T03:26:52.963Z,0.00
2023-03-02T03:27:52.942Z,0.00
2023-03-02T03:28:52.952Z,0.00
2023-03-02T03:29:52.947Z,0.00
2023-03-02T03:30:53.290Z,0.00
2023-03-02T03:31:53.328Z,0.00
2023-03-02T03:32:53.285Z,0.00
2023-03-02T03:33:52.874Z,0.00
2023-03-02T03:34:52.887Z,0.00
2023-03-02T03:35:52.864Z,0.00
2023-03-02T03:36:52.845Z,0.00
2023-03-02T03:37:52.825Z,0.00
2023-03-02T03:38:53.196Z,0.00
2023-03-02T03:39:53.359Z,0.00
2023-03-02T03:40:52.808Z,0.00
2023-03-02T03:41:52.776Z,0.00
2023-03-02T03:42:52.772Z,0.00
2023-03-02T03:43:52.754Z,0.00
2023-03-02T03:44:52.789Z,0.00
2023-03-02T03:45:52.765Z,0.00
2023-03-02T03:46:53.367Z,0.00
2023-03-02T03:47:52.704Z,0.00
2023-03-02T03:48:52.717Z,0.00
2023-03-02T03:49:52.724Z,0.00
2023-03-02T03:50:52.690Z,0.00
2023-03-02T03:51:52.671Z,0.00
2023-03-02T03:52:52.664Z,0.00
2023-03-02T03:53:52.637Z,0.00
2023-03-02T03:54:53.374Z,0.00
2023-03-02T03:55:52.616Z,0.00
2023-03-02T03:56:52.613Z,0.00
2023-03-02T03:57:52.600Z,0.00
2023-03-02T03:58:52.606Z,0.00
2023-03-02T03:59:52.571Z,0.00
2023-03-02T04:00:52.588Z,0.00
2023-03-02T04:01:52.604Z,0.00
2023-03-02T04:02:53.406Z,0.00
2023-03-02T04:03:53.012Z,0.00
2023-03-02T04:04:53.380Z,0.00
2023-03-02T04:05:53.372Z,0.00
2023-03-02T04:06:52.871Z,0.00
2023-03-02T04:07:52.473Z,0.00
2023-03-02T04:08:52.498Z,0.00
2023-03-02T04:09:52.485Z,0.00
2023-03-02T04:10:52.488Z,0.00
2023-03-02T04:11:52.489Z,0.00
2023-03-02T04:12:52.527Z,0.00
2023-03-02T04:13:52.418Z,0.00
2023-03-02T04:14:52.409Z,0.00
2023-03-02T04:15:52.450Z,0.00
2023-03-02T04:16:52.402Z,0.00
2023-03-02T04:17:52.392Z,0.00
2023-03-02T04:18:52.387Z,0.00
2023-03-02T04:19:52.750Z,0.00
2023-03-02T04:20:52.391Z,0.00
2023-03-02T04:21:52.385Z,0.00
2023-03-02T04:22:52.340Z,0.00
2023-03-02T04:23:52.295Z,0.00
2023-03-02T04:24:52.308Z,0.00
2023-03-02T04:25:52.286Z,0.00
2023-03-02T04:26:52.386Z,0.00
2023-03-02T04:27:53.004Z,0.00
2023-03-02T04:28:52.396Z,0.00
2023-03-02T04:29:52.233Z,0.00
2023-03-02T04:30:52.313Z,0.00
2023-03-02T04:31:52.310Z,0.00
2023-03-02T04:32:52.221Z,0.00
2023-03-02T04:33:52.699Z,0.00
2023-03-02T04:34:52.404Z,0.00
2023-03-02T04:35:53.215Z,0.00
2023-03-02T04:36:52.391Z,0.00
2023-03-02T04:37:52.151Z,0.00
2023-03-02T04:38:52.158Z,0.00
2023-03-02T04:39:52.127Z,0.00
2023-03-02T04:40:52.132Z,0.00
2023-03-02T04:41:52.329Z,0.00
2023-03-02T04:42:52.418Z,0.00
2023-03-02T04:43:52.595Z,0.00
2023-03-02T04:44:52.098Z,0.00
2023-03-02T04:45:52.058Z,0.00
2023-03-02T04:46:52.152Z,0.00
2023-03-02T04:47:52.053Z,0.00
2023-03-02T04:48:52.041Z,0.00
2023-03-02T04:49:52.156Z,0.00
2023-03-02T04:50:52.439Z,0.00
2023-03-02T04:51:53.152Z,0.00
2023-03-02T04:52:52.430Z,0.00
2023-03-02T04:53:51.987Z,0.00
2023-03-02T04:54:51.981Z,0.00
2023-03-02T04:55:52.715Z,0.00
2023-03-02T04:56:51.972Z,0.00
2023-03-02T04:57:51.949Z,0.00
2023-03-02T04:58:51.989Z,0.00
2023-03-02T04:59:52.033Z,0.00
2023-03-02T05:00:51.910Z,0.00
2023-03-02T05:01:51.931Z,0.00
2023-03-02T05:02:51.895Z,0.00
2023-03-02T05:03:51.881Z,0.00
2023-03-02T05:04:51.927Z,0.00
2023-03-02T05:05:51.844Z,0.00
2023-03-02T05:06:52.275Z,0.00
2023-03-02T05:07:52.298Z,0.00
2023-03-02T05:08:51.842Z,0.00
2023-03-02T05:09:51.846Z,0.00
2023-03-02T05:10:51.800Z,0.00
2023-03-02T05:11:51.769Z,0.00
2023-03-02T05:12:51.788Z,0.00
2023-03-02T05:13:51.767Z,0.00
2023-03-02T05:14:52.438Z,0.00
2023-03-02T05:15:52.469Z,0.00
2023-03-02T05:16:51.759Z,0.00
2023-03-02T05:17:51.723Z,0.00
2023-03-02T05:18:51.721Z,0.00
2023-03-02T05:19:51.701Z,0.00
2023-03-02T05:20:51.686Z,0.00
2023-03-02T05:21:51.668Z,0.00
2023-03-02T05:22:51.672Z,0.00
2023-03-02T05:23:51.656Z,0.00
2023-03-02T05:24:51.659Z,0.00
2023-03-02T05:25:51.619Z,0.00
2023-03-02T05:26:51.618Z,0.00
2023-03-02T05:27:51.594Z,0.00
2023-03-02T05:28:53.965Z,0.00
2023-03-02T05:29:52.597Z,0.00
2023-03-02T05:30:52.459Z,0.00
2023-03-02T05:31:52.514Z,0.00
2023-03-02T05:32:52.306Z,0.00
2023-03-02T05:33:51.548Z,0.00
2023-03-02T05:34:51.545Z,0.00
2023-03-02T05:35:51.573Z,0.00
2023-03-02T05:36:51.512Z,0.00
2023-03-02T05:37:51.496Z,0.00
2023-03-02T05:38:51.498Z,0.00
2023-03-02T05:39:51.480Z,0.00
2023-03-02T05:40:51.488Z,0.00
2023-03-02T05:41:51.439Z,0.00
2023-03-02T05:42:51.435Z,0.00
2023-03-02T05:43:51.417Z,0.00
2023-03-02T05:44:51.416Z,0.00
2023-03-02T05:45:51.463Z,4.00
2023-03-02T05:46:51.509Z,0.00
2023-03-02T05:47:51.473Z,0.00
2023-03-02T05:48:51.375Z,4.00
2023-03-02T05:49:51.346Z,0.00
2023-03-02T05:50:51.346Z,4.00
2023-03-02T05:51:51.339Z,0.00
2023-03-02T05:52:51.475Z,0.00
2023-03-02T05:53:51.465Z,4.00
2023-03-02T05:54:51.464Z,4.00
2023-03-02T05:55:51.470Z,4.00
2023-03-02T05:56:51.295Z,8.00
2023-03-02T05:57:51.269Z,8.00
2023-03-02T05:58:51.258Z,8.00
2023-03-02T05:59:51.464Z,8.00
2023-03-02T06:00:51.230Z,12.00
2023-03-02T06:01:51.507Z,12.00
2023-03-02T06:02:51.506Z,12.00
2023-03-02T06:03:51.472Z,16.00
2023-03-02T06:04:51.191Z,20.00
2023-03-02T06:05:51.148Z,20.00
2023-03-02T06:06:51.480Z,20.00
2023-03-02T06:07:51.158Z,28.00
2023-03-02T06:08:51.142Z,28.00
2023-03-02T06:09:51.469Z,32.00
2023-03-02T06:10:51.479Z,36.00
2023-03-02T06:11:51.472Z,40.00
2023-03-02T06:12:51.105Z,44.00
2023-03-02T06:13:51.088Z,44.00
2023-03-02T06:14:51.482Z,52.00
2023-03-02T06:15:51.066Z,56.00
2023-03-02T06:16:51.105Z,60.00
2023-03-02T06:17:51.506Z,68.00
2023-03-02T06:18:51.423Z,72.00
2023-03-02T06:19:51.479Z,76.00
2023-03-02T06:20:50.998Z,84.00
2023-03-02T06:21:50.998Z,88.00
2023-03-02T06:22:50.982Z,96.00
2023-03-02T06:23:50.973Z,104.00
2023-03-02T06:24:51.487Z,112.00
2023-03-02T06:25:51.054Z,120.00
2023-03-02T06:26:50.945Z,128.00
2023-03-02T06:27:50.919Z,136.00
2023-03-02T06:28:53.212Z,144.00
2023-03-02T06:29:50.892Z,156.00
2023-03-02T06:30:50.891Z,164.00
2023-03-02T06:31:50.950Z,176.00
2023-03-02T06:32:50.991Z,184.00
2023-03-02T06:33:50.926Z,192.00
2023-03-02T06:34:51.100Z,204.00
2023-03-02T06:35:51.271Z,216.00
2023-03-02T06:36:50.829Z,224.00
2023-03-02T06:37:50.820Z,232.00
2023-03-02T06:38:51.268Z,244.00
2023-03-02T06:39:50.812Z,256.00
2023-03-02T06:40:50.771Z,268.00
2023-03-02T06:41:51.366Z,280.00
2023-03-02T06:42:51.402Z,284.00
2023-03-02T06:43:51.440Z,296.00
2023-03-02T06:44:50.738Z,308.00
2023-03-02T06:45:50.785Z,320.00
2023-03-02T06:46:50.750Z,332.00
2023-03-02T06:47:50.713Z,340.00
2023-03-02T06:48:51.386Z,356.00
2023-03-02T06:49:51.518Z,364.00
2023-03-02T06:50:51.470Z,376.00
2023-03-02T06:51:51.470Z,388.00
2023-03-02T06:52:50.638Z,400.00
2023-03-02T06:53:51.510Z,412.00
2023-03-02T06:54:50.651Z,424.00
2023-03-02T06:55:50.627Z,436.00
2023-03-02T06:56:50.589Z,448.00
2023-03-02T06:57:50.635Z,452.00
2023-03-02T06:58:51.511Z,468.00
2023-03-02T06:59:51.517Z,480.00
2023-03-02T07:00:50.598Z,492.00
2023-03-02T07:01:50.580Z,504.00
2023-03-02T07:02:50.530Z,512.00
2023-03-02T07:03:50.577Z,528.00
2023-03-02T07:04:50.522Z,536.00
2023-03-02T07:05:50.519Z,548.00
2023-03-02T07:06:50.508Z,560.00
2023-03-02T07:07:50.517Z,572.00
2023-03-02T07:08:50.448Z,584.00
2023-03-02T07:09:50.458Z,596.00
2023-03-02T07:10:50.458Z,608.00
2023-03-02T07:11:50.470Z,616.00
2023-03-02T07:12:50.415Z,624.00
2023-03-02T07:13:50.424Z,636.00
2023-03-02T07:14:50.392Z,648.00
2023-03-02T07:15:50.470Z,660.00
2023-03-02T07:16:50.405Z,668.00
2023-03-02T07:17:50.364Z,680.00
2023-03-02T07:18:50.333Z,692.00
2023-03-02T07:19:50.334Z,700.00
2023-03-02T07:20:50.341Z,712.00
2023-03-02T07:21:50.344Z,724.00
2023-03-02T07:22:50.493Z,732.00
2023-03-02T07:23:50.527Z,740.00
2023-03-02T07:24:50.284Z,780.00
2023-03-02T07:25:50.274Z,912.00
2023-03-02T07:26:50.247Z,1116.00
2023-03-02T07:27:50.274Z,1332.00
2023-03-02T07:28:50.222Z,1560.00
2023-03-02T07:29:50.533Z,1848.00
2023-03-02T07:30:50.550Z,2232.00
2023-03-02T07:31:50.305Z,2656.00
2023-03-02T07:32:50.197Z,3004.00
2023-03-02T07:33:50.171Z,3216.00
2023-03-02T07:34:50.147Z,3340.00
2023-03-02T07:35:50.218Z,3432.00
2023-03-02T07:36:50.124Z,3524.00
2023-03-02T07:37:50.531Z,3616.00
2023-03-02T07:38:50.535Z,3692.00
2023-03-02T07:39:50.426Z,3784.00
2023-03-02T07:40:50.100Z,3876.00
2023-03-02T07:41:50.081Z,3964.00
2023-03-02T07:42:50.071Z,4056.00
2023-03-02T07:43:50.079Z,4136.00
2023-03-02T07:44:50.045Z,4200.00
2023-03-02T07:45:50.548Z,4272.00
2023-03-02T07:46:50.615Z,4340.00
2023-03-02T07:47:50.044Z,4388.00
2023-03-02T07:48:49.997Z,4440.00
2023-03-02T07:49:50.005Z,4504.00
2023-03-02T07:50:49.974Z,4560.00
2023-03-02T07:51:49.966Z,4596.00
2023-03-02T07:52:49.961Z,4636.00
2023-03-02T07:53:49.945Z,4676.00
2023-03-02T07:54:49.973Z,4736.00
2023-03-02T07:55:50.014Z,4816.00
2023-03-02T07:56:49.904Z,4884.00
2023-03-02T07:57:49.931Z,4932.00
2023-03-02T07:58:49.879Z,4968.00
2023-03-02T07:59:49.871Z,5016.00
2023-03-02T08:00:49.857Z,5056.00
2023-03-02T08:01:49.981Z,5108.00
2023-03-02T08:02:49.909Z,5200.00
2023-03-02T08:03:49.842Z,5216.00
2023-03-02T08:04:49.811Z,5256.00
2023-03-02T08:05:49.835Z,5256.00
2023-03-02T08:06:49.807Z,5240.00
2023-03-02T08:07:49.822Z,5284.00
2023-03-02T08:08:50.164Z,5296.00
2023-03-02T08:09:49.763Z,5340.00
2023-03-02T08:10:49.763Z,5376.00
2023-03-02T08:11:49.752Z,5428.00
2023-03-02T08:12:49.759Z,5464.00
2023-03-02T08:13:50.338Z,5492.00
2023-03-02T08:14:49.697Z,5536.00
2023-03-02T08:15:49.750Z,5552.00
2023-03-02T08:16:50.427Z,5564.00
2023-03-02T08:17:50.460Z,5584.00
2023-03-02T08:18:49.669Z,5568.00
2023-03-02T08:19:50.551Z,5544.00
2023-03-02T08:20:49.629Z,5572.00
2023-03-02T08:21:49.637Z,5568.00
2023-03-02T08:22:49.627Z,5564.00
2023-03-02T08:23:49.620Z,5544.00
2023-03-02T08:24:49.983Z,5516.00
2023-03-02T08:25:49.590Z,5480.00
2023-03-02T08:26:49.577Z,5416.00
2023-03-02T08:27:50.347Z,5356.00
2023-03-02T08:28:50.576Z,5260.00
2023-03-02T08:29:49.530Z,5140.00
2023-03-02T08:30:49.548Z,5036.00
2023-03-02T08:31:50.574Z,4920.00
2023-03-02T08:32:50.438Z,4792.00
2023-03-02T08:33:49.579Z,4684.00
2023-03-02T08:34:49.481Z,4564.00
2023-03-02T08:35:51.336Z,4420.00
2023-03-02T08:36:49.454Z,4228.00
2023-03-02T08:37:49.442Z,4060.00
2023-03-02T08:38:49.427Z,3820.00
2023-03-02T08:39:49.420Z,3612.00
2023-03-02T08:40:49.657Z,3288.00
2023-03-02T08:41:49.590Z,3112.00
2023-03-02T08:42:49.371Z,2852.00
2023-03-02T08:43:49.385Z,2652.00
2023-03-02T08:44:49.349Z,2436.00
2023-03-02T08:45:49.443Z,2264.00
2023-03-02T08:46:49.360Z,2168.00
2023-03-02T08:47:49.477Z,2112.00
2023-03-02T08:48:49.304Z,2072.00
2023-03-02T08:49:49.306Z,2048.00
2023-03-02T08:50:49.265Z,2028.00
2023-03-02T08:51:49.281Z,1996.00
2023-03-02T08:52:49.281Z,1948.00
2023-03-02T08:53:49.264Z,1908.00
2023-03-02T08:54:49.255Z,1876.00
2023-03-02T08:55:49.230Z,1836.00
2023-03-02T08:56:49.208Z,1796.00
2023-03-02T08:57:49.616Z,1768.00
2023-03-02T08:58:49.191Z,1740.00
2023-03-02T08:59:49.847Z,1712.00
2023-03-02T09:00:49.243Z,1688.00
2023-03-02T09:01:49.255Z,1676.00
2023-03-02T09:02:49.146Z,1664.00
2023-03-02T09:03:49.124Z,1652.00
2023-03-02T09:04:49.165Z,1636.00
2023-03-02T09:05:49.110Z,1628.00
2023-03-02T09:06:49.100Z,1612.00
2023-03-02T09:07:49.119Z,1608.00
2023-03-02T09:08:49.105Z,1596.00
2023-03-02T09:09:49.070Z,1588.00
2023-03-02T09:10:49.035Z,1584.00
2023-03-02T09:11:49.048Z,1576.00
2023-03-02T09:12:49.058Z,1568.00
2023-03-02T09:13:49.613Z,1564.00
2023-03-02T09:14:48.999Z,1556.00
2023-03-02T09:15:49.840Z,1544.00
2023-03-02T09:16:49.042Z,1540.00
2023-03-02T09:17:49.013Z,1528.00
2023-03-02T09:18:48.992Z,1520.00
2023-03-02T09:19:49.011Z,1512.00
2023-03-02T09:20:49.130Z,1508.00
2023-03-02T09:21:48.935Z,1504.00
2023-03-02T09:22:48.940Z,1492.00
2023-03-02T09:23:48.921Z,1484.00
2023-03-02T09:24:48.896Z,1472.00
2023-03-02T09:25:48.916Z,1464.00
2023-03-02T09:26:48.862Z,1448.00
2023-03-02T09:27:48.915Z,1444.00
2023-03-02T09:28:49.449Z,1436.00
2023-03-02T09:29:48.889Z,1424.00
2023-03-02T09:30:48.864Z,1420.00
2023-03-02T09:31:48.979Z,1408.00
2023-03-02T09:32:48.959Z,1396.00
2023-03-02T09:33:48.819Z,1388.00
2023-03-02T09:34:48.753Z,1372.00
2023-03-02T09:35:48.821Z,1364.00
2023-03-02T09:36:49.058Z,1356.00
2023-03-02T09:37:49.123Z,1344.00
2023-03-02T09:38:48.780Z,1332.00
2023-03-02T09:39:49.220Z,1324.00
2023-03-02T09:40:48.713Z,1316.00
2023-03-02T09:41:48.702Z,1308.00
2023-03-02T09:42:48.671Z,1296.00
2023-03-02T09:43:48.703Z,1292.00
2023-03-02T09:44:48.668Z,1280.00
2023-03-02T09:45:48.699Z,1268.00
2023-03-02T09:46:48.623Z,1264.00
2023-03-02T09:47:48.638Z,1256.00
2023-03-02T09:48:48.613Z,1244.00
2023-03-02T09:49:48.605Z,1236.00
2023-03-02T09:50:48.621Z,1236.00
2023-03-02T09:51:48.587Z,1224.00
2023-03-02T09:52:48.905Z,1220.00
2023-03-02T09:53:48.641Z,1212.00
2023-03-02T09:54:48.585Z,1200.00
2023-03-02T09:55:48.550Z,1196.00
2023-03-02T09:56:48.503Z,1188.00
2023-03-02T09:57:48.522Z,1248.00
2023-03-02T09:58:48.483Z,1168.00
2023-03-02T09:59:48.489Z,1160.00
2023-03-02T10:00:48.655Z,1152.00
2023-03-02T10:01:48.462Z,1140.00
2023-03-02T10:02:48.487Z,1136.00
2023-03-02T10:03:48.618Z,1124.00
2023-03-02T10:04:48.530Z,1112.00
2023-03-02T10:05:48.419Z,1112.00
2023-03-02T10:06:48.392Z,1104.00
2023-03-02T10:07:48.396Z,1092.00
2023-03-02T10:08:48.373Z,1092.00
2023-03-02T10:09:48.369Z,1080.00
2023-03-02T10:10:48.355Z,1072.00
2023-03-02T10:11:48.364Z,1064.00
2023-03-02T10:12:48.314Z,1056.00
2023-03-02T10:13:48.327Z,1048.00
2023-03-02T10:14:48.318Z,1040.00
2023-03-02T10:15:48.440Z,1036.00
2023-03-02T10:16:48.339Z,1028.00
2023-03-02T10:17:48.267Z,1016.00
2023-03-02T10:18:48.390Z,1004.00
2023-03-02T10:19:48.307Z,1000.00
2023-03-02T10:20:48.264Z,992.00
2023-03-02T10:21:48.259Z,984.00
2023-03-02T10:22:48.293Z,980.00
2023-03-02T10:23:48.237Z,968.00
2023-03-02T10:24:48.638Z,952.00
2023-03-02T10:25:48.217Z,940.00
2023-03-02T10:26:48.209Z,932.00
2023-03-02T10:27:48.286Z,920.00
2023-03-02T10:28:48.126Z,912.00
2023-03-02T10:29:48.128Z,904.00
2023-03-02T10:30:48.163Z,896.00
2023-03-02T10:31:48.121Z,888.00
2023-03-02T10:32:48.110Z,880.00
2023-03-02T10:33:48.672Z,876.00
2023-03-02T10:34:48.065Z,868.00
2023-03-02T10:35:48.096Z,864.00
2023-03-02T10:36:48.046Z,856.00
2023-03-02T10:37:48.074Z,852.00
2023-03-02T10:38:48.027Z,848.00
2023-03-02T10:39:49.462Z,844.00
2023-03-02T10:40:48.152Z,836.00
2023-03-02T10:41:47.982Z,836.00
2023-03-02T10:42:47.997Z,824.00
2023-03-02T10:43:47.972Z,816.00
2023-03-02T10:44:47.943Z,816.00
2023-03-02T10:45:48.006Z,808.00
2023-03-02T10:46:47.987Z,808.00
2023-03-02T10:47:47.948Z,796.00
2023-03-02T10:48:49.876Z,792.00
2023-03-02T10:49:48.476Z,792.00
2023-03-02T10:50:47.878Z,784.00
2023-03-02T10:51:48.551Z,780.00
2023-03-02T10:52:59.239Z,776.00
2023-03-02T10:53:49.591Z,772.00
2023-03-02T10:54:48.662Z,768.00
2023-03-02T10:55:48.698Z,764.00
2023-03-02T10:56:48.049Z,756.00
2023-03-02T10:57:48.002Z,748.00
2023-03-02T10:58:47.801Z,748.00
2023-03-02T10:59:47.824Z,748.00
2023-03-02T11:00:47.812Z,740.00
2023-03-02T11:01:47.827Z,740.00
2023-03-02T11:02:47.772Z,736.00
2023-03-02T11:03:47.712Z,736.00
2023-03-02T11:04:47.992Z,728.00
2023-03-02T11:05:47.742Z,724.00
2023-03-02T11:06:47.708Z,720.00
2023-03-02T11:07:47.708Z,720.00
2023-03-02T11:08:47.697Z,716.00
2023-03-02T11:09:47.692Z,716.00
2023-03-02T11:10:48.164Z,716.00
2023-03-02T11:11:48.129Z,708.00
2023-03-02T11:12:47.705Z,708.00
2023-03-02T11:13:47.629Z,704.00
2023-03-02T11:14:47.607Z,700.00
2023-03-02T11:15:47.659Z,700.00
2023-03-02T11:16:47.598Z,696.00
2023-03-02T11:17:47.574Z,696.00
2023-03-02T11:18:47.588Z,692.00
2023-03-02T11:19:47.572Z,700.00
2023-03-02T11:20:47.572Z,684.00
2023-03-02T11:21:47.567Z,680.00
2023-03-02T11:22:47.567Z,680.00
2023-03-02T11:23:47.563Z,680.00
2023-03-02T11:24:47.517Z,676.00
2023-03-02T11:25:47.477Z,672.00
2023-03-02T11:26:47.590Z,672.00
2023-03-02T11:27:47.555Z,672.00
2023-03-02T11:28:47.623Z,668.00
2023-03-02T11:29:47.555Z,664.00
2023-03-02T11:30:47.568Z,656.00
2023-03-02T11:31:47.564Z,664.00
2023-03-02T11:32:47.722Z,656.00
2023-03-02T11:33:47.603Z,652.00
2023-03-02T11:34:47.410Z,652.00
2023-03-02T11:35:47.610Z,652.00
2023-03-02T11:36:47.555Z,648.00
2023-03-02T11:37:47.572Z,648.00
2023-03-02T11:38:47.559Z,648.00
2023-03-02T11:39:55.037Z,644.00
2023-03-02T11:40:48.382Z,644.00
2023-03-02T11:41:47.565Z,636.00
2023-03-02T11:42:47.278Z,636.00
2023-03-02T11:43:47.260Z,636.00
2023-03-02T11:44:47.297Z,628.00
2023-03-02T11:45:48.208Z,632.00
2023-03-02T11:46:47.367Z,636.00
2023-03-02T11:47:51.579Z,636.00
2023-03-02T11:48:48.232Z,632.00
2023-03-02T11:49:47.188Z,628.00
2023-03-02T11:50:47.184Z,628.00
2023-03-02T11:51:53.309Z,620.00
2023-03-02T11:52:48.770Z,628.00
2023-03-02T11:53:47.153Z,624.00
2023-03-02T11:54:47.168Z,628.00
2023-03-02T11:55:47.212Z,624.00
2023-03-02T11:56:47.635Z,624.00
2023-03-02T11:57:47.276Z,624.00
2023-03-02T11:58:47.402Z,620.00
2023-03-02T11:59:47.088Z,616.00
2023-03-02T12:00:47.118Z,620.00
2023-03-02T12:01:47.083Z,616.00
2023-03-02T12:02:47.034Z,616.00
2023-03-02T12:03:47.044Z,616.00
2023-03-02T12:04:47.034Z,616.00
2023-03-02T12:05:47.037Z,612.00
2023-03-02T12:06:47.026Z,612.00
2023-03-02T12:07:46.961Z,612.00
2023-03-02T12:08:47.442Z,608.00
2023-03-02T12:09:46.970Z,608.00
2023-03-02T12:10:46.981Z,608.00
2023-03-02T12:11:46.926Z,608.00
2023-03-02T12:12:46.924Z,604.00
2023-03-02T12:13:47.576Z,616.00
2023-03-02T12:14:46.910Z,612.00
2023-03-02T12:15:46.892Z,604.00
2023-03-02T12:16:47.636Z,604.00
2023-03-02T12:17:46.899Z,600.00
2023-03-02T12:18:47.584Z,608.00
2023-03-02T12:19:46.830Z,604.00
2023-03-02T12:20:46.868Z,604.00
2023-03-02T12:21:46.813Z,592.00
2023-03-02T12:22:46.816Z,600.00
2023-03-02T12:23:46.797Z,596.00
2023-03-02T12:24:47.572Z,600.00
2023-03-02T12:25:47.562Z,580.00
2023-03-02T12:26:47.597Z,596.00
2023-03-02T12:27:46.759Z,596.00
2023-03-02T12:28:46.742Z,592.00
2023-03-02T12:29:46.739Z,592.00
2023-03-02T12:30:46.738Z,592.00
2023-03-02T12:31:46.724Z,592.00
2023-03-02T12:32:46.856Z,596.00
2023-03-02T12:33:46.675Z,592.00
2023-03-02T12:34:46.924Z,592.00
2023-03-02T12:35:46.688Z,592.00
2023-03-02T12:36:46.994Z,588.00
2023-03-02T12:37:46.763Z,588.00
2023-03-02T12:38:46.688Z,588.00
2023-03-02T12:39:46.681Z,588.00
2023-03-02T12:40:46.655Z,588.00
2023-03-02T12:41:46.620Z,584.00
2023-03-02T12:42:46.584Z,588.00
2023-03-02T12:43:46.555Z,584.00
2023-03-02T12:44:46.557Z,588.00
2023-03-02T12:45:46.584Z,588.00
2023-03-02T12:46:46.551Z,584.00